Time;durP1;ratioP1;P1;durP2;ratioP2;P2;SDS_P1;SDS_P2;PMS_P1;PMS_P2;Temp;Humidity;BMP_temperature;BMP_pressure;BME280_temperature;BME280_humidity;BME280_pressure;Samples;Min_cycle;Max_cycle;Signal;HPM_P1;HPM_P2
2022/03/09 00:01:34;;;;;;;14.90;8.10;;;;;;;;;;5092837;28;20497;-73
2022/03/09 00:04:01;;;;;;;15.70;8.93;;;;;;;;;;5090291;28;20096;-76
2022/03/09 00:06:26;;;;;;;16.05;7.45;;;;;;;;;;5086894;28;20429;-76
2022/03/09 00:08:52;;;;;;;16.70;7.57;;;;;;;;;;5091400;28;20047;-78
2022/03/09 00:11:18;;;;;;;16.20;7.35;;;;;;;;;;5092622;28;20063;-77
2022/03/09 00:13:44;;;;;;;14.25;6.45;;;;;;;;;;5073766;28;20538;-77
2022/03/09 00:16:10;;;;;;;12.73;7.07;;;;;;;;;;5092074;27;20534;-74
2022/03/09 00:18:36;;;;;;;10.63;6.70;;;;;;;;;;5091944;28;20155;-75
2022/03/09 00:21:02;;;;;;;12.60;6.45;;;;;;;;;;5092011;27;20077;-74
2022/03/09 00:23:28;;;;;;;11.73;6.60;;;;;;;;;;5075548;28;20074;-76
2022/03/09 00:25:54;;;;;;;14.57;6.40;;;;;;;;;;5091319;27;20051;-77
2022/03/09 00:28:20;;;;;;;10.20;6.22;;;;;;;;;;5089659;28;20112;-75
2022/03/09 00:30:46;;;;;;;11.90;6.75;;;;;;;;;;5091423;27;20496;-76
2022/03/09 00:33:11;;;;;;;13.10;6.93;;;;;;;;;;5093575;28;20058;-77
2022/03/09 00:35:38;;;;;;;10.52;6.68;;;;;;;;;;5092095;28;20052;-75
2022/03/09 00:38:05;;;;;;;10.68;6.72;;;;;;;;;;5089704;28;20051;-74
2022/03/09 00:40:32;;;;;;;10.55;6.45;;;;;;;;;;5093824;27;20593;-76
2022/03/09 00:42:57;;;;;;;13.60;7.63;;;;;;;;;;5092987;28;20050;-77
2022/03/09 00:45:23;;;;;;;13.60;7.18;;;;;;;;;;5072626;28;20067;-78
2022/03/09 00:47:49;;;;;;;13.85;6.95;;;;;;;;;;5071824;28;20511;-75
2022/03/09 00:50:15;;;;;;;11.43;6.70;;;;;;;;;;5089965;28;20043;-73
2022/03/09 00:52:41;;;;;;;12.18;6.63;;;;;;;;;;5073471;28;20449;-76
2022/03/09 00:55:08;;;;;;;9.35;6.28;;;;;;;;;;5089632;28;20054;-74
2022/03/09 00:57:34;;;;;;;9.70;6.50;;;;;;;;;;5090231;28;20485;-77
2022/03/09 00:59:59;;;;;;;9.35;6.72;;;;;;;;;;5090779;28;20108;-76
2022/03/09 01:02:25;;;;;;;11.68;6.60;;;;;;;;;;5092073;28;20091;-75
2022/03/09 01:04:51;;;;;;;11.60;7.63;;;;;;;;;;5090294;27;20051;-76
2022/03/09 01:07:18;;;;;;;11.48;6.72;;;;;;;;;;5088464;27;20319;-75
2022/03/09 01:09:43;;;;;;;10.70;7.07;;;;;;;;;;5091279;28;20047;-74
2022/03/09 01:12:09;;;;;;;10.77;7.57;;;;;;;;;;5092504;28;20047;-75
2022/03/09 01:14:35;;;;;;;12.10;6.80;;;;;;;;;;5089359;28;20186;-75
2022/03/09 01:17:02;;;;;;;13.88;7.70;;;;;;;;;;5088310;28;20069;-75
2022/03/09 01:19:27;;;;;;;11.38;7.30;;;;;;;;;;5092094;28;20051;-77
2022/03/09 01:21:53;;;;;;;10.57;7.35;;;;;;;;;;5088266;28;20071;-77
2022/03/09 01:24:19;;;;;;;12.38;8.15;;;;;;;;;;5073746;28;20062;-77
2022/03/09 01:26:45;;;;;;;11.93;7.18;;;;;;;;;;5087113;28;20052;-75
2022/03/09 01:29:11;;;;;;;12.35;6.55;;;;;;;;;;5089651;28;20154;-75
2022/03/09 01:31:37;;;;;;;12.45;6.55;;;;;;;;;;5091180;28;20127;-74
2022/03/09 01:34:04;;;;;;;8.88;6.43;;;;;;;;;;5090951;27;20046;-75
2022/03/09 01:36:29;;;;;;;11.52;6.85;;;;;;;;;;5087893;28;20059;-76
2022/03/09 01:38:55;;;;;;;9.05;6.50;;;;;;;;;;5092487;28;20405;-76
2022/03/09 01:41:21;;;;;;;9.65;6.32;;;;;;;;;;5090576;28;20051;-75
2022/03/09 01:44:13;;;;;;;11.50;6.55;;;;;;;;;;5091483;27;20073;-76
2022/03/09 01:46:40;;;;;;;9.55;5.65;;;;;;;;;;5089713;27;20055;-75
2022/03/09 01:49:08;;;;;;;10.25;6.03;;;;;;;;;;5073126;28;20569;-75
2022/03/09 01:51:36;;;;;;;8.55;5.50;;;;;;;;;;5089197;28;20158;-75
2022/03/09 01:54:04;;;;;;;9.65;5.55;;;;;;;;;;5089261;28;20056;-74
2022/03/09 01:56:30;;;;;;;7.53;5.45;;;;;;;;;;5088086;28;20476;-75
2022/03/09 01:58:56;;;;;;;10.40;4.82;;;;;;;;;;5089555;28;20286;-75
2022/03/09 02:01:23;;;;;;;7.28;5.00;;;;;;;;;;5087810;27;20052;-75
2022/03/09 02:03:49;;;;;;;6.75;5.07;;;;;;;;;;5088643;28;20078;-76
2022/03/09 02:06:15;;;;;;;8.60;5.07;;;;;;;;;;5086826;27;20058;-74
2022/03/09 02:11:28;;;;;;;10.38;4.97;;;;;;;;;;5088365;28;20327;-73
2022/03/09 02:13:54;;;;;;;7.72;4.88;;;;;;;;;;5088559;28;20059;-77
2022/03/09 02:16:19;;;;;;;7.85;4.72;;;;;;;;;;5085347;28;20390;-76
2022/03/09 02:18:45;;;;;;;5.45;4.22;;;;;;;;;;5086006;27;20052;-73
2022/03/09 02:21:15;;;;;;;5.97;4.35;;;;;;;;;;5088238;28;20044;-76
2022/03/09 02:23:41;;;;;;;6.82;4.25;;;;;;;;;;5088383;28;20486;-73
2022/03/09 02:26:07;;;;;;;6.78;4.00;;;;;;;;;;5089071;28;20134;-73
2022/03/09 02:28:38;;;;;;;6.75;4.15;;;;;;;;;;5089670;28;20044;-75
2022/03/09 02:31:05;;;;;;;7.40;4.20;;;;;;;;;;5090594;28;20056;-74
2022/03/09 02:33:30;;;;;;;5.00;4.00;;;;;;;;;;5092376;28;20095;-75
2022/03/09 02:35:56;;;;;;;7.85;4.00;;;;;;;;;;5094385;28;20291;-74
2022/03/09 02:38:22;;;;;;;6.40;3.90;;;;;;;;;;5074234;28;20455;-77
2022/03/09 02:40:48;;;;;;;6.65;3.92;;;;;;;;;;5093678;28;20035;-77
2022/03/09 02:43:14;;;;;;;8.95;4.38;;;;;;;;;;5089831;28;20162;-75
2022/03/09 02:45:39;;;;;;;6.38;4.05;;;;;;;;;;5088788;28;20046;-76
2022/03/09 02:48:05;;;;;;;6.03;3.88;;;;;;;;;;5083283;28;20055;-76
2022/03/09 02:50:31;;;;;;;8.40;3.90;;;;;;;;;;5089678;28;21082;-74
2022/03/09 02:52:57;;;;;;;6.55;4.18;;;;;;;;;;5088304;28;20460;-75
2022/03/09 02:55:23;;;;;;;10.57;3.60;;;;;;;;;;5087593;28;20047;-75
2022/03/09 02:57:49;;;;;;;6.00;3.95;;;;;;;;;;5086972;27;20067;-76
2022/03/09 03:00:15;;;;;;;5.60;3.75;;;;;;;;;;5087358;27;20488;-75
2022/03/09 03:02:40;;;;;;;6.10;3.30;;;;;;;;;;5089620;28;20063;-76
2022/03/09 03:05:07;;;;;;;4.97;3.35;;;;;;;;;;5088334;28;20050;-75
2022/03/09 03:07:34;;;;;;;7.18;3.58;;;;;;;;;;5086322;28;20421;-76
2022/03/09 03:10:00;;;;;;;7.15;3.65;;;;;;;;;;5089903;28;20213;-75
2022/03/09 03:12:26;;;;;;;6.63;3.65;;;;;;;;;;5089024;28;20059;-74
2022/03/09 03:14:51;;;;;;;7.70;3.50;;;;;;;;;;5087355;28;20055;-72
2022/03/09 03:17:17;;;;;;;7.25;4.18;;;;;;;;;;5085647;28;20048;-74
2022/03/09 03:19:44;;;;;;;6.13;3.72;;;;;;;;;;5087206;28;20229;-73
2022/03/09 03:22:10;;;;;;;6.95;3.90;;;;;;;;;;5090385;28;20090;-75
2022/03/09 03:24:35;;;;;;;6.03;3.38;;;;;;;;;;5088211;28;20496;-74
2022/03/09 03:27:01;;;;;;;8.23;4.10;;;;;;;;;;5087897;28;20130;-73
2022/03/09 03:29:27;;;;;;;5.88;3.60;;;;;;;;;;5087654;28;20070;-76
2022/03/09 03:31:53;;;;;;;8.27;4.30;;;;;;;;;;5088893;28;20135;-76
2022/03/09 03:34:19;;;;;;;7.25;4.18;;;;;;;;;;5089137;28;20569;-76
2022/03/09 03:36:45;;;;;;;7.20;4.53;;;;;;;;;;5085927;28;20055;-73
2022/03/09 03:39:11;;;;;;;6.20;4.20;;;;;;;;;;5089749;28;20055;-73
2022/03/09 03:41:37;;;;;;;6.93;4.15;;;;;;;;;;5089698;28;20589;-74
2022/03/09 03:44:03;;;;;;;7.50;4.43;;;;;;;;;;5089242;28;20130;-74
2022/03/09 03:46:29;;;;;;;6.28;4.00;;;;;;;;;;5086234;28;20043;-76
2022/03/09 03:48:55;;;;;;;5.75;3.90;;;;;;;;;;5088833;28;20930;-76
2022/03/09 03:51:21;;;;;;;7.60;3.90;;;;;;;;;;5086812;28;20048;-76
2022/03/09 03:53:47;;;;;;;8.75;4.05;;;;;;;;;;5088782;28;20055;-77
2022/03/09 03:56:13;;;;;;;4.95;3.60;;;;;;;;;;5086239;28;20412;-75
2022/03/09 03:58:38;;;;;;;5.97;3.83;;;;;;;;;;5088315;28;20531;-76
2022/03/09 04:01:04;;;;;;;7.45;3.30;;;;;;;;;;5089000;28;20048;-74
2022/03/09 04:03:30;;;;;;;7.03;3.60;;;;;;;;;;5091391;28;20056;-75
2022/03/09 04:05:56;;;;;;;5.30;3.60;;;;;;;;;;5090296;28;20055;-74
2022/03/09 04:08:22;;;;;;;5.35;3.45;;;;;;;;;;5082616;28;20051;-76
2022/03/09 04:10:48;;;;;;;5.38;3.42;;;;;;;;;;5089277;28;20051;-74
2022/03/09 04:13:14;;;;;;;4.53;3.15;;;;;;;;;;5088501;28;20047;-73
2022/03/09 04:15:40;;;;;;;7.10;3.15;;;;;;;;;;5088021;28;20604;-75
2022/03/09 04:18:06;;;;;;;4.30;3.03;;;;;;;;;;5086549;28;20496;-73
2022/03/09 04:20:32;;;;;;;7.03;3.47;;;;;;;;;;5088166;28;20121;-74
2022/03/09 04:22:58;;;;;;;5.90;3.30;;;;;;;;;;5087788;28;20626;-76
2022/03/09 04:25:26;;;;;;;7.50;3.45;;;;;;;;;;5086544;28;20417;-75
2022/03/09 04:27:52;;;;;;;5.82;3.22;;;;;;;;;;5086257;28;20058;-73
2022/03/09 04:30:18;;;;;;;4.03;2.85;;;;;;;;;;5086054;28;20054;-76
2022/03/09 04:32:44;;;;;;;4.68;3.00;;;;;;;;;;5087630;28;20408;-73
2022/03/09 04:35:10;;;;;;;5.75;2.95;;;;;;;;;;5087192;28;20048;-74
2022/03/09 04:37:36;;;;;;;5.70;2.80;;;;;;;;;;5082536;28;20063;-76
2022/03/09 04:40:04;;;;;;;4.70;3.00;;;;;;;;;;5087830;28;20048;-76
2022/03/09 04:42:30;;;;;;;4.60;2.67;;;;;;;;;;5089317;28;20048;-77
2022/03/09 04:44:56;;;;;;;5.85;3.00;;;;;;;;;;5088117;28;20849;-74
2022/03/09 04:47:23;;;;;;;5.82;2.80;;;;;;;;;;5082807;28;20054;-74
2022/03/09 04:49:50;;;;;;;5.75;2.25;;;;;;;;;;5086948;28;20048;-76
2022/03/09 04:52:18;;;;;;;4.85;2.28;;;;;;;;;;5085986;28;20332;-75
2022/03/09 04:54:44;;;;;;;6.72;2.40;;;;;;;;;;5086751;28;20044;-75
2022/03/09 04:57:10;;;;;;;6.32;2.42;;;;;;;;;;5088183;28;20047;-76
2022/03/09 04:59:36;;;;;;;5.75;2.60;;;;;;;;;;5092405;28;20100;-75
2022/03/09 05:02:02;;;;;;;8.07;2.70;;;;;;;;;;5088120;28;20063;-74
2022/03/09 05:04:28;;;;;;;6.80;2.40;;;;;;;;;;5088760;28;20058;-75
2022/03/09 05:06:55;;;;;;;5.43;2.47;;;;;;;;;;5085073;28;20121;-74
2022/03/09 05:09:21;;;;;;;4.15;2.67;;;;;;;;;;5087689;27;20065;-74
2022/03/09 05:11:47;;;;;;;12.48;3.10;;;;;;;;;;5090432;28;20187;-75
2022/03/09 05:14:13;;;;;;;5.75;2.83;;;;;;;;;;5088827;28;20600;-74
2022/03/09 05:16:39;;;;;;;8.05;3.40;;;;;;;;;;5086189;28;20693;-75
2022/03/09 05:19:05;;;;;;;5.70;3.33;;;;;;;;;;5072552;28;20168;-74
2022/03/09 05:21:31;;;;;;;6.60;3.53;;;;;;;;;;5090190;28;20044;-74
2022/03/09 05:23:57;;;;;;;10.32;3.35;;;;;;;;;;5087179;28;20054;-75
2022/03/09 05:26:23;;;;;;;7.00;3.60;;;;;;;;;;5085995;28;20261;-76
2022/03/09 05:28:50;;;;;;;8.95;3.45;;;;;;;;;;5075113;27;20476;-74
2022/03/09 05:31:18;;;;;;;6.32;3.33;;;;;;;;;;5079929;27;20451;-75
2022/03/09 05:33:44;;;;;;;12.52;3.63;;;;;;;;;;5071682;28;20473;-75
2022/03/09 05:36:10;;;;;;;10.27;3.38;;;;;;;;;;5080729;28;20039;-74
2022/03/09 05:38:36;;;;;;;11.18;3.30;;;;;;;;;;5081386;27;20063;-74
2022/03/09 05:41:02;;;;;;;10.43;3.83;;;;;;;;;;5081922;28;20055;-74
2022/03/09 05:43:28;;;;;;;11.48;3.72;;;;;;;;;;5081834;28;20048;-76
2022/03/09 05:45:54;;;;;;;9.13;3.30;;;;;;;;;;5078935;27;20059;-77
2022/03/09 05:48:20;;;;;;;6.38;3.30;;;;;;;;;;5074598;28;20136;-75
2022/03/09 05:50:45;;;;;;;6.28;3.28;;;;;;;;;;5083724;28;20454;-76
2022/03/09 05:53:12;;;;;;;6.75;4.00;;;;;;;;;;5067416;28;20054;-73
2022/03/09 05:55:37;;;;;;;5.90;3.65;;;;;;;;;;5085843;28;20787;-74
2022/03/09 05:58:04;;;;;;;9.63;3.50;;;;;;;;;;5079330;28;20105;-76
2022/03/09 06:00:30;;;;;;;7.78;3.88;;;;;;;;;;5083694;28;20055;-77
2022/03/09 06:02:56;;;;;;;8.98;4.05;;;;;;;;;;5064070;28;20065;-75
2022/03/09 06:05:22;;;;;;;11.80;4.53;;;;;;;;;;5079555;27;20048;-74
2022/03/09 06:07:49;;;;;;;14.40;5.05;;;;;;;;;;5080065;28;20127;-73
2022/03/09 06:10:15;;;;;;;10.93;3.90;;;;;;;;;;5077414;27;20044;-73
2022/03/09 06:12:41;;;;;;;9.55;4.18;;;;;;;;;;5084351;28;20484;-75
2022/03/09 06:15:08;;;;;;;9.65;4.00;;;;;;;;;;5082326;28;20043;-77
2022/03/09 06:17:47;;;;;;;11.90;4.30;;;;;;;;;;5078909;28;20051;-74
2022/03/09 06:20:19;;;;;;;12.52;3.83;;;;;;;;;;5079578;28;20154;-74
2022/03/09 06:22:45;;;;;;;7.32;3.20;;;;;;;;;;5078320;27;20138;-75
2022/03/09 06:25:14;;;;;;;5.65;3.35;;;;;;;;;;5078085;28;20044;-75
2022/03/09 06:27:45;;;;;;;5.80;3.33;;;;;;;;;;5074456;28;20051;-77
2022/03/09 06:30:12;;;;;;;5.93;3.33;;;;;;;;;;5079544;28;20050;-76
2022/03/09 06:32:38;;;;;;;7.65;3.03;;;;;;;;;;5083758;28;20094;-82
2022/03/09 06:35:05;;;;;;;8.77;3.10;;;;;;;;;;5082721;28;20055;-75
2022/03/09 06:37:32;;;;;;;9.70;2.90;;;;;;;;;;5078706;28;20055;-76
2022/03/09 06:39:58;;;;;;;6.90;3.20;;;;;;;;;;5089554;28;20056;-78
2022/03/09 06:42:25;;;;;;;8.05;3.13;;;;;;;;;;5089805;28;20054;-78
2022/03/09 06:44:51;;;;;;;6.38;3.30;;;;;;;;;;5093177;28;20051;-76
2022/03/09 06:47:18;;;;;;;5.72;2.78;;;;;;;;;;5088227;28;20032;-78
2022/03/09 06:49:44;;;;;;;8.80;2.70;;;;;;;;;;5087918;28;20035;-77
2022/03/09 06:52:10;;;;;;;10.85;3.60;;;;;;;;;;5090599;28;21086;-78
2022/03/09 06:54:36;;;;;;;10.60;3.00;;;;;;;;;;5093616;28;20719;-76
2022/03/09 06:57:03;;;;;;;9.45;3.10;;;;;;;;;;5089996;28;20062;-75
2022/03/09 06:59:29;;;;;;;12.00;2.95;;;;;;;;;;5091846;28;20150;-78
2022/03/09 07:01:55;;;;;;;7.57;3.42;;;;;;;;;;5086406;28;20062;-77
2022/03/09 07:04:23;;;;;;;9.70;2.97;;;;;;;;;;5087411;28;20043;-82
2022/03/09 07:06:49;;;;;;;7.82;3.22;;;;;;;;;;5086725;28;20763;-80
2022/03/09 07:09:15;;;;;;;13.43;3.22;;;;;;;;;;5078989;28;20122;-77
2022/03/09 07:11:41;;;;;;;6.65;3.00;;;;;;;;;;5074481;28;20082;-79
2022/03/09 07:14:07;;;;;;;7.35;3.05;;;;;;;;;;5081806;28;20047;-76
2022/03/09 07:16:34;;;;;;;11.05;3.20;;;;;;;;;;5083257;28;20043;-78
2022/03/09 07:19:00;;;;;;;10.88;3.47;;;;;;;;;;5081542;28;20408;-77
2022/03/09 07:21:26;;;;;;;18.92;3.88;;;;;;;;;;5084997;28;20055;-79
2022/03/09 07:23:52;;;;;;;12.93;3.58;;;;;;;;;;5084265;28;20134;-79
2022/03/09 07:26:18;;;;;;;9.07;3.53;;;;;;;;;;5086282;28;20412;-79
2022/03/09 07:28:44;;;;;;;7.97;3.78;;;;;;;;;;5066189;28;20051;-77
2022/03/09 07:31:10;;;;;;;12.95;4.65;;;;;;;;;;5083228;28;20040;-77
2022/03/09 07:33:36;;;;;;;10.68;4.53;;;;;;;;;;5087462;28;20124;-79
2022/03/09 07:36:02;;;;;;;8.38;4.63;;;;;;;;;;5085952;28;21056;-76
2022/03/09 07:38:28;;;;;;;10.05;4.15;;;;;;;;;;5081600;28;20485;-81
2022/03/09 07:40:54;;;;;;;9.60;4.30;;;;;;;;;;5081851;28;20052;-77
2022/03/09 07:43:20;;;;;;;7.97;4.65;;;;;;;;;;5081672;28;20245;-72
2022/03/09 07:45:47;;;;;;;16.80;8.07;;;;;;;;;;5082266;28;20055;-79
2022/03/09 07:48:13;;;;;;;12.95;4.63;;;;;;;;;;5077237;28;20389;-75
2022/03/09 07:50:39;;;;;;;15.73;5.30;;;;;;;;;;5077691;28;20614;-74
2022/03/09 07:53:07;;;;;;;15.55;4.50;;;;;;;;;;5080761;28;20706;-73
2022/03/09 07:55:33;;;;;;;7.43;3.65;;;;;;;;;;5079651;28;20998;-75
2022/03/09 07:57:59;;;;;;;8.27;3.70;;;;;;;;;;5076744;28;20078;-77
2022/03/09 08:00:25;;;;;;;12.63;5.38;;;;;;;;;;5075989;28;20158;-76
2022/03/09 08:02:50;;;;;;;15.80;3.45;;;;;;;;;;5076206;28;20789;-74
2022/03/09 08:05:16;;;;;;;10.13;3.50;;;;;;;;;;5075145;28;20950;-75
2022/03/09 08:07:44;;;;;;;13.07;4.00;;;;;;;;;;5076979;28;20115;-73
2022/03/09 08:10:10;;;;;;;9.85;3.70;;;;;;;;;;5075839;28;20785;-74
2022/03/09 08:12:36;;;;;;;10.93;3.50;;;;;;;;;;5079699;28;20051;-74
2022/03/09 08:15:04;;;;;;;10.30;3.45;;;;;;;;;;5078234;28;20058;-73
2022/03/09 08:17:30;;;;;;;10.70;3.88;;;;;;;;;;5070870;28;20047;-76
2022/03/09 08:19:56;;;;;;;6.47;3.20;;;;;;;;;;5078276;28;20433;-80
2022/03/09 08:22:22;;;;;;;9.48;3.20;;;;;;;;;;5083439;28;20052;-75
2022/03/09 08:24:48;;;;;;;7.40;3.05;;;;;;;;;;5076619;28;20093;-76
2022/03/09 08:27:14;;;;;;;7.13;3.05;;;;;;;;;;5069460;28;20067;-73
2022/03/09 08:29:40;;;;;;;13.02;3.00;;;;;;;;;;5077807;28;20054;-74
2022/03/09 08:32:06;;;;;;;7.80;2.67;;;;;;;;;;5080429;28;20052;-75
2022/03/09 08:34:32;;;;;;;8.52;3.25;;;;;;;;;;5061674;28;20135;-76
2022/03/09 08:36:58;;;;;;;9.85;2.85;;;;;;;;;;5074270;28;20231;-75
2022/03/09 08:39:24;;;;;;;23.95;3.05;;;;;;;;;;5080377;28;20145;-75
2022/03/09 08:41:50;;;;;;;8.18;2.45;;;;;;;;;;5079658;28;20039;-73
2022/03/09 08:44:16;;;;;;;14.10;3.42;;;;;;;;;;5081352;28;20050;-75
2022/03/09 08:46:42;;;;;;;10.98;3.25;;;;;;;;;;5077515;27;20391;-72
2022/03/09 08:49:08;;;;;;;6.28;3.25;;;;;;;;;;5078885;28;20134;-75
2022/03/09 08:51:34;;;;;;;9.07;3.47;;;;;;;;;;5078039;27;20411;-78
2022/03/09 08:54:00;;;;;;;9.90;4.18;;;;;;;;;;5078063;28;20051;-76
2022/03/09 08:56:28;;;;;;;7.82;3.60;;;;;;;;;;5076153;28;21838;-76
2022/03/09 08:58:55;;;;;;;10.32;4.43;;;;;;;;;;5078100;28;20054;-74
2022/03/09 09:01:22;;;;;;;8.00;4.03;;;;;;;;;;5079528;28;20571;-72
2022/03/09 09:03:48;;;;;;;7.78;4.10;;;;;;;;;;5080382;28;21364;-77
2022/03/09 09:06:14;;;;;;;14.40;5.80;;;;;;;;;;5075261;28;20551;-74
2022/03/09 09:08:41;;;;;;;9.90;6.13;;;;;;;;;;5078841;28;20081;-73
2022/03/09 09:11:07;;;;;;;13.10;6.97;;;;;;;;;;5076708;28;20047;-73
2022/03/09 09:13:33;;;;;;;15.75;7.07;;;;;;;;;;5078339;28;20603;-72
2022/03/09 09:15:59;;;;;;;16.88;7.57;;;;;;;;;;5077962;28;20055;-72
2022/03/09 09:18:25;;;;;;;20.75;8.02;;;;;;;;;;5076622;28;20088;-73
2022/03/09 09:20:52;;;;;;;17.15;7.90;;;;;;;;;;5076627;28;20059;-74
2022/03/09 09:23:19;;;;;;;15.15;7.43;;;;;;;;;;5060383;28;20050;-72
2022/03/09 09:25:45;;;;;;;11.48;7.18;;;;;;;;;;5078639;28;20067;-73
2022/03/09 09:28:11;;;;;;;13.43;6.68;;;;;;;;;;5075589;28;20632;-75
2022/03/09 09:30:37;;;;;;;12.57;6.75;;;;;;;;;;5077818;28;20511;-74
2022/03/09 09:33:03;;;;;;;12.38;6.65;;;;;;;;;;5078182;28;20873;-79
2022/03/09 09:35:29;;;;;;;13.15;5.82;;;;;;;;;;5077923;28;20071;-73
2022/03/09 09:37:57;;;;;;;11.18;6.10;;;;;;;;;;5074055;28;20134;-77
2022/03/09 09:40:24;;;;;;;10.73;5.45;;;;;;;;;;5075706;28;20487;-74
2022/03/09 09:42:50;;;;;;;10.93;5.07;;;;;;;;;;5076977;28;20054;-73
2022/03/09 09:45:16;;;;;;;9.55;5.28;;;;;;;;;;5041787;28;20794;-74
2022/03/09 09:47:42;;;;;;;8.77;4.28;;;;;;;;;;5076358;28;20048;-76
2022/03/09 09:50:13;;;;;;;18.85;4.65;;;;;;;;;;5075411;28;20564;-75
2022/03/09 09:52:40;;;;;;;6.15;4.30;;;;;;;;;;5078119;28;20055;-75
2022/03/09 09:55:07;;;;;;;10.18;4.90;;;;;;;;;;5079151;28;20126;-76
2022/03/09 09:57:34;;;;;;;13.07;4.82;;;;;;;;;;5077213;28;20076;-75
2022/03/09 10:00:01;;;;;;;11.02;4.68;;;;;;;;;;5076882;28;20052;-75
2022/03/09 10:02:27;;;;;;;7.53;4.03;;;;;;;;;;5078705;27;20068;-79
2022/03/09 10:04:53;;;;;;;11.32;4.35;;;;;;;;;;5077543;28;20043;-75
2022/03/09 10:07:19;;;;;;;9.25;4.00;;;;;;;;;;5076780;28;20075;-76
2022/03/09 10:09:45;;;;;;;11.20;4.35;;;;;;;;;;5081989;28;20039;-73
2022/03/09 10:12:13;;;;;;;11.30;4.38;;;;;;;;;;5078854;28;20418;-72
2022/03/09 10:14:53;;;;;;;11.63;4.88;;;;;;;;;;5082391;28;20166;-73
2022/03/09 10:17:27;;;;;;;10.30;4.78;;;;;;;;;;5080416;28;20500;-72
2022/03/09 10:19:58;;;;;;;7.75;4.47;;;;;;;;;;5082338;28;20051;-72
2022/03/09 10:22:41;;;;;;;11.30;4.63;;;;;;;;;;5080645;28;20040;-72
2022/03/09 10:25:10;;;;;;;11.93;4.38;;;;;;;;;;5081936;28;20751;-74
2022/03/09 10:27:45;;;;;;;10.85;6.35;;;;;;;;;;5079136;28;20048;-73
2022/03/09 10:30:19;;;;;;;8.80;5.28;;;;;;;;;;5084017;28;20495;-73
2022/03/09 10:32:52;;;;;;;10.85;4.80;;;;;;;;;;5066946;28;20130;-73
2022/03/09 10:35:39;;;;;;;19.55;5.60;;;;;;;;;;5084421;28;20047;-74
2022/03/09 10:38:08;;;;;;;11.85;5.00;;;;;;;;;;5080093;28;20816;-74
2022/03/09 10:40:48;;;;;;;11.52;5.38;;;;;;;;;;5083563;28;20197;-71
2022/03/09 10:43:23;;;;;;;13.18;5.57;;;;;;;;;;5085983;28;20520;-73
2022/03/09 10:46:06;;;;;;;11.07;5.57;;;;;;;;;;5083309;28;20183;-74
2022/03/09 10:48:49;;;;;;;12.00;5.95;;;;;;;;;;5082636;28;21081;-73
2022/03/09 10:51:32;;;;;;;11.80;6.20;;;;;;;;;;5082900;28;20081;-74
2022/03/09 10:54:05;;;;;;;8.93;5.80;;;;;;;;;;5083446;28;20100;-72
2022/03/09 10:56:36;;;;;;;12.88;7.45;;;;;;;;;;5079203;28;20051;-72
2022/03/09 10:59:28;;;;;;;15.95;7.43;;;;;;;;;;5082280;28;20079;-73
2022/03/09 11:02:05;;;;;;;12.32;7.53;;;;;;;;;;5080337;28;20518;-72
2022/03/09 11:04:31;;;;;;;11.48;7.45;;;;;;;;;;5082456;28;20119;-73
2022/03/09 11:06:57;;;;;;;13.93;6.88;;;;;;;;;;5079135;28;20044;-73
2022/03/09 11:09:23;;;;;;;15.48;6.93;;;;;;;;;;5083020;28;20073;-71
2022/03/09 11:11:50;;;;;;;11.77;7.38;;;;;;;;;;5083944;28;20416;-73
2022/03/09 11:14:18;;;;;;;10.32;7.32;;;;;;;;;;5085339;28;20054;-72
2022/03/09 11:16:46;;;;;;;11.95;7.43;;;;;;;;;;5080532;28;20060;-72
2022/03/09 11:19:13;;;;;;;17.27;7.55;;;;;;;;;;5083782;28;20066;-72
2022/03/09 11:21:40;;;;;;;10.55;7.30;;;;;;;;;;5083658;28;20158;-71
2022/03/09 11:24:11;;;;;;;11.77;7.20;;;;;;;;;;5084811;28;20070;-72
2022/03/09 11:26:49;;;;;;;12.60;7.18;;;;;;;;;;5041755;28;20734;-73
2022/03/09 11:29:16;;;;;;;9.20;6.70;;;;;;;;;;5084435;28;20060;-75
2022/03/09 11:31:50;;;;;;;18.33;7.18;;;;;;;;;;5067159;28;20641;-72
2022/03/09 11:34:35;;;;;;;13.05;6.53;;;;;;;;;;5085366;28;20055;-74
2022/03/09 11:37:18;;;;;;;13.77;6.22;;;;;;;;;;5078131;28;20099;-72
2022/03/09 11:40:05;;;;;;;10.07;5.70;;;;;;;;;;5085370;28;20055;-72
2022/03/09 11:42:36;;;;;;;10.82;5.22;;;;;;;;;;5062306;28;20622;-73
2022/03/09 11:45:15;;;;;;;8.45;5.18;;;;;;;;;;5082528;28;20911;-74
2022/03/09 11:48:04;;;;;;;9.35;4.53;;;;;;;;;;5079338;28;22358;-75
2022/03/09 11:50:34;;;;;;;8.77;4.78;;;;;;;;;;5072841;28;20060;-72
2022/03/09 11:53:08;;;;;;;8.02;4.75;;;;;;;;;;5076609;28;20644;-73
2022/03/09 11:55:35;;;;;;;10.38;5.18;;;;;;;;;;5075848;28;21083;-73
2022/03/09 11:58:08;;;;;;;13.90;6.65;;;;;;;;;;5073064;28;20047;-74
2022/03/09 12:00:40;;;;;;;12.45;4.40;;;;;;;;;;5058817;28;20366;-75
2022/03/09 12:03:06;;;;;;;10.13;4.25;;;;;;;;;;5075609;28;20059;-73
2022/03/09 12:05:38;;;;;;;7.38;4.10;;;;;;;;;;5076632;28;20051;-74
2022/03/09 12:08:12;;;;;;;17.17;4.43;;;;;;;;;;5079486;28;20180;-72
2022/03/09 12:10:54;;;;;;;;;;;;;;;;;;5082555;27;20786;-73
2022/03/09 12:13:33;;;;;;;11.50;4.38;;;;;;;;;;5081626;28;19961;-73
2022/03/09 12:16:14;;;;;;;10.10;4.05;;;;;;;;;;5081226;28;20056;-73
2022/03/09 12:19:10;;;;;;;7.68;3.65;;;;;;;;;;5062409;28;20950;-73
2022/03/09 12:21:41;;;;;;;5.63;3.72;;;;;;;;;;5077336;28;20608;-73
2022/03/09 12:24:12;;;;;;;9.13;3.90;;;;;;;;;;5081847;28;20594;-75
2022/03/09 12:26:42;;;;;;;7.20;3.85;;;;;;;;;;5077029;28;20788;-73
2022/03/09 12:29:26;;;;;;;8.45;4.47;;;;;;;;;;5080210;28;20106;-73
2022/03/09 12:32:05;;;;;;;10.80;3.97;;;;;;;;;;5081513;28;20058;-75
2022/03/09 12:34:37;;;;;;;8.82;3.90;;;;;;;;;;5079685;28;20063;-76
2022/03/09 12:37:06;;;;;;;9.98;3.95;;;;;;;;;;5074336;28;20059;-74
2022/03/09 12:39:32;;;;;;;6.68;3.50;;;;;;;;;;5080390;28;20081;-75
2022/03/09 12:42:00;;;;;;;9.18;4.20;;;;;;;;;;5079833;28;20466;-74
2022/03/09 12:44:30;;;;;;;10.80;3.70;;;;;;;;;;5081054;28;20048;-74
2022/03/09 12:47:01;;;;;;;7.47;4.40;;;;;;;;;;5075764;28;20458;-72
2022/03/09 12:49:43;;;;;;;6.28;3.72;;;;;;;;;;5078038;28;20131;-72
2022/03/09 12:52:12;;;;;;;6.88;3.58;;;;;;;;;;5081005;28;20655;-74
2022/03/09 12:54:39;;;;;;;8.80;3.97;;;;;;;;;;5082143;28;20063;-73
2022/03/09 12:57:22;;;;;;;6.93;3.85;;;;;;;;;;5075970;28;20051;-76
2022/03/09 12:59:59;;;;;;;7.70;4.22;;;;;;;;;;5080296;28;20051;-74
2022/03/09 13:02:40;;;;;;;6.95;3.55;;;;;;;;;;5063617;28;20162;-73
2022/03/09 13:05:08;;;;;;;5.47;3.45;;;;;;;;;;5076463;28;20509;-77
2022/03/09 13:07:35;;;;;;;10.10;4.05;;;;;;;;;;5076253;28;20051;-74
2022/03/09 13:10:12;;;;;;;6.13;3.67;;;;;;;;;;5080599;28;20056;-72
2022/03/09 13:13:02;;;;;;;6.47;3.50;;;;;;;;;;5081814;27;20074;-75
2022/03/09 13:15:42;;;;;;;7.80;3.30;;;;;;;;;;5080514;28;20588;-74
2022/03/09 13:18:14;;;;;;;6.05;3.70;;;;;;;;;;5078583;28;20140;-77
2022/03/09 13:20:42;;;;;;;6.72;4.05;;;;;;;;;;5080506;28;20044;-73
2022/03/09 13:23:32;;;;;;;5.45;3.67;;;;;;;;;;5081154;28;20487;-74
2022/03/09 13:26:17;;;;;;;7.03;3.80;;;;;;;;;;5080571;28;20052;-76
2022/03/09 13:28:47;;;;;;;6.03;3.85;;;;;;;;;;5062805;28;20127;-75
2022/03/09 13:31:16;;;;;;;6.18;3.85;;;;;;;;;;5079747;28;20168;-72
2022/03/09 13:33:41;;;;;;;5.57;3.58;;;;;;;;;;5082121;28;21154;-74
2022/03/09 13:36:15;;;;;;;7.68;3.08;;;;;;;;;;5079283;28;20039;-72
2022/03/09 13:38:55;;;;;;;12.05;3.55;;;;;;;;;;5082323;28;20059;-72
2022/03/09 13:41:21;;;;;;;7.80;3.17;;;;;;;;;;5082321;28;20469;-71
2022/03/09 13:43:47;;;;;;;6.22;3.70;;;;;;;;;;5079653;27;20051;-70
2022/03/09 13:46:22;;;;;;;6.07;3.30;;;;;;;;;;5078717;28;20048;-73
2022/03/09 13:49:06;;;;;;;5.75;2.67;;;;;;;;;;5080901;28;20143;-70
2022/03/09 13:51:33;;;;;;;6.70;2.85;;;;;;;;;;5079143;28;20047;-71
2022/03/09 13:54:04;;;;;;;4.13;2.50;;;;;;;;;;5077619;27;20458;-73
2022/03/09 13:56:31;;;;;;;2.80;2.08;;;;;;;;;;5074080;28;20054;-71
2022/03/09 13:58:57;;;;;;;5.28;2.17;;;;;;;;;;5076041;28;20470;-73
2022/03/09 14:01:33;;;;;;;4.10;2.63;;;;;;;;;;5078931;28;20036;-70
2022/03/09 14:04:03;;;;;;;5.80;2.90;;;;;;;;;;5078272;28;20129;-71
2022/03/09 14:06:30;;;;;;;5.30;2.83;;;;;;;;;;5073258;28;20062;-73
2022/03/09 14:08:57;;;;;;;5.85;3.22;;;;;;;;;;5078122;27;20040;-73
2022/03/09 14:11:25;;;;;;;9.70;3.60;;;;;;;;;;5079025;28;20052;-72
2022/03/09 14:14:02;;;;;;;8.02;3.67;;;;;;;;;;5078976;28;20048;-72
2022/03/09 14:16:29;;;;;;;6.78;3.47;;;;;;;;;;5054520;28;20051;-72
2022/03/09 14:18:57;;;;;;;6.88;3.35;;;;;;;;;;5077572;28;20112;-69
2022/03/09 14:21:23;;;;;;;7.28;3.85;;;;;;;;;;5075048;28;20051;-71
2022/03/09 14:23:50;;;;;;;11.38;3.72;;;;;;;;;;5077995;28;20039;-73
2022/03/09 14:26:16;;;;;;;8.48;4.07;;;;;;;;;;5075835;28;20039;-69
2022/03/09 14:28:42;;;;;;;4.22;3.17;;;;;;;;;;5075847;28;20059;-70
2022/03/09 14:31:08;;;;;;;7.53;3.80;;;;;;;;;;5076656;28;20056;-71
2022/03/09 14:33:34;;;;;;;10.85;3.90;;;;;;;;;;5077186;27;20048;-71
2022/03/09 14:36:03;;;;;;;12.00;3.65;;;;;;;;;;5076340;28;22216;-69
2022/03/09 14:38:30;;;;;;;5.53;3.63;;;;;;;;;;5056635;28;20047;-73
2022/03/09 14:40:56;;;;;;;8.45;3.90;;;;;;;;;;5073817;28;20057;-70
2022/03/09 14:43:22;;;;;;;7.00;3.55;;;;;;;;;;5059017;28;20047;-75
2022/03/09 14:45:48;;;;;;;8.20;2.97;;;;;;;;;;5077670;28;20048;-71
2022/03/09 14:48:15;;;;;;;6.53;2.78;;;;;;;;;;5075930;28;20055;-73